Terminal Aerodrome Forecast
Issued by NWS

Home | Current Version | Previous Version | Text Only | Print | Product List | Glossary On
Versions: 1 2 3 4 5 6 7 8 9 10 11 12 13 14 15 16 17 18 19 20 21 22 23 24 25 26 27 28 29 30 31 32 33
000
FTUS44 KHGX 291835 AAA
TAFIAH
TAF AMD
KIAH 291835Z 2919/3024 08007KT P6SM VCSH SCT024 BKN045 BKN060
      TEMPO 2919/2922 15009G16KT TSRA SCT022 BKN035CB
     FM300100 07005KT P6SM BKN250
     FM300600 03004KT P6SM FEW009 BKN140 BKN250
     FM301800 08006KT P6SM VCSH SCT030 BKN250=

USA.gov is the U.S. government's official web portal to all federal, state and local government web resources and services.